sensor_id;sensor_type;location;lat;lon;timestamp;P1;durP1;ratioP1;P2;durP2;ratioP2
74291;SDS011;62687;55.738;37.516;2023-07-28T00:00:35;19.73;;;10.68;;
74291;SDS011;62687;55.738;37.516;2023-07-28T00:03:19;19.63;;;11.18;;
74291;SDS011;62687;55.738;37.516;2023-07-28T00:06:03;16.85;;;9.65;;
74291;SDS011;62687;55.738;37.516;2023-07-28T00:08:47;16.05;;;10.20;;
74291;SDS011;62687;55.738;37.516;2023-07-28T00:11:31;15.50;;;9.73;;
74291;SDS011;62687;55.738;37.516;2023-07-28T00:14:15;16.80;;;9.82;;
74291;SDS011;62687;55.738;37.516;2023-07-28T00:16:59;13.43;;;9.95;;
74291;SDS011;62687;55.738;37.516;2023-07-28T00:19:43;16.05;;;10.70;;
74291;SDS011;62687;55.738;37.516;2023-07-28T00:22:27;14.48;;;10.23;;
74291;SDS011;62687;55.738;37.516;2023-07-28T00:25:11;14.20;;;9.93;;
74291;SDS011;62687;55.738;37.516;2023-07-28T00:27:55;19.52;;;10.90;;
74291;SDS011;62687;55.738;37.516;2023-07-28T00:30:39;16.60;;;11.25;;
74291;SDS011;62687;55.738;37.516;2023-07-28T00:33:23;16.33;;;10.48;;
74291;SDS011;62687;55.738;37.516;2023-07-28T00:36:07;16.85;;;10.07;;
74291;SDS011;62687;55.738;37.516;2023-07-28T00:38:51;13.50;;;9.48;;
74291;SDS011;62687;55.738;37.516;2023-07-28T00:41:34;18.88;;;11.50;;
74291;SDS011;62687;55.738;37.516;2023-07-28T00:44:19;13.50;;;10.35;;
74291;SDS011;62687;55.738;37.516;2023-07-28T00:47:03;17.73;;;9.90;;
74291;SDS011;62687;55.738;37.516;2023-07-28T00:49:46;17.95;;;10.30;;
74291;SDS011;62687;55.738;37.516;2023-07-28T00:52:31;13.68;;;9.48;;
74291;SDS011;62687;55.738;37.516;2023-07-28T00:55:15;16.83;;;9.52;;
74291;SDS011;62687;55.738;37.516;2023-07-28T00:57:59;16.40;;;10.20;;
74291;SDS011;62687;55.738;37.516;2023-07-28T01:00:43;14.80;;;10.32;;
74291;SDS011;62687;55.738;37.516;2023-07-28T01:03:27;13.40;;;9.32;;
74291;SDS011;62687;55.738;37.516;2023-07-28T01:06:18;16.27;;;9.70;;
74291;SDS011;62687;55.738;37.516;2023-07-28T01:09:05;16.88;;;9.63;;
74291;SDS011;62687;55.738;37.516;2023-07-28T01:11:57;13.40;;;9.93;;
74291;SDS011;62687;55.738;37.516;2023-07-28T01:14:42;15.77;;;10.80;;
74291;SDS011;62687;55.738;37.516;2023-07-28T01:17:27;15.55;;;9.73;;
74291;SDS011;62687;55.738;37.516;2023-07-28T01:20:11;14.95;;;9.48;;
74291;SDS011;62687;55.738;37.516;2023-07-28T01:28:41;15.93;;;9.93;;
74291;SDS011;62687;55.738;37.516;2023-07-28T01:31:26;13.43;;;9.77;;
74291;SDS011;62687;55.738;37.516;2023-07-28T01:34:10;17.27;;;9.55;;
74291;SDS011;62687;55.738;37.516;2023-07-28T01:36:55;14.15;;;10.20;;
74291;SDS011;62687;55.738;37.516;2023-07-28T01:39:39;13.13;;;9.77;;
74291;SDS011;62687;55.738;37.516;2023-07-28T01:42:23;14.00;;;9.95;;
74291;SDS011;62687;55.738;37.516;2023-07-28T01:45:07;21.30;;;10.55;;
74291;SDS011;62687;55.738;37.516;2023-07-28T01:47:51;14.98;;;9.73;;
74291;SDS011;62687;55.738;37.516;2023-07-28T01:50:36;16.90;;;10.20;;
74291;SDS011;62687;55.738;37.516;2023-07-28T01:53:20;14.15;;;9.63;;
74291;SDS011;62687;55.738;37.516;2023-07-28T01:56:04;14.18;;;9.75;;
74291;SDS011;62687;55.738;37.516;2023-07-28T01:58:48;14.25;;;10.30;;
74291;SDS011;62687;55.738;37.516;2023-07-28T02:01:32;15.02;;;10.02;;
74291;SDS011;62687;55.738;37.516;2023-07-28T02:04:16;15.20;;;10.20;;
74291;SDS011;62687;55.738;37.516;2023-07-28T02:07:00;14.38;;;10.70;;
74291;SDS011;62687;55.738;37.516;2023-07-28T02:09:44;16.15;;;10.35;;
74291;SDS011;62687;55.738;37.516;2023-07-28T02:12:28;15.77;;;10.50;;
74291;SDS011;62687;55.738;37.516;2023-07-28T02:15:12;19.75;;;10.50;;
74291;SDS011;62687;55.738;37.516;2023-07-28T02:17:57;16.58;;;9.77;;
74291;SDS011;62687;55.738;37.516;2023-07-28T02:20:41;14.02;;;11.35;;
74291;SDS011;62687;55.738;37.516;2023-07-28T02:23:25;14.57;;;10.27;;
74291;SDS011;62687;55.738;37.516;2023-07-28T02:26:09;17.30;;;9.73;;
74291;SDS011;62687;55.738;37.516;2023-07-28T02:28:53;14.10;;;10.38;;
74291;SDS011;62687;55.738;37.516;2023-07-28T02:31:37;14.10;;;10.43;;
74291;SDS011;62687;55.738;37.516;2023-07-28T02:34:21;18.02;;;9.90;;
74291;SDS011;62687;55.738;37.516;2023-07-28T02:37:05;20.08;;;10.02;;
74291;SDS011;62687;55.738;37.516;2023-07-28T02:39:49;13.55;;;9.90;;
74291;SDS011;62687;55.738;37.516;2023-07-28T02:42:33;18.02;;;10.10;;
74291;SDS011;62687;55.738;37.516;2023-07-28T02:45:19;15.73;;;10.15;;
74291;SDS011;62687;55.738;37.516;2023-07-28T02:48:03;15.90;;;10.07;;
74291;SDS011;62687;55.738;37.516;2023-07-28T02:50:47;15.43;;;11.02;;
74291;SDS011;62687;55.738;37.516;2023-07-28T02:53:31;16.02;;;10.77;;
74291;SDS011;62687;55.738;37.516;2023-07-28T02:56:15;15.95;;;10.52;;
74291;SDS011;62687;55.738;37.516;2023-07-28T02:58:59;19.92;;;10.65;;
74291;SDS011;62687;55.738;37.516;2023-07-28T03:01:43;15.60;;;9.73;;
74291;SDS011;62687;55.738;37.516;2023-07-28T03:04:27;13.30;;;9.40;;
74291;SDS011;62687;55.738;37.516;2023-07-28T03:07:11;13.30;;;9.93;;
74291;SDS011;62687;55.738;37.516;2023-07-28T03:09:55;12.93;;;9.45;;
74291;SDS011;62687;55.738;37.516;2023-07-28T03:12:39;14.45;;;10.23;;
74291;SDS011;62687;55.738;37.516;2023-07-28T03:15:23;17.90;;;9.80;;
74291;SDS011;62687;55.738;37.516;2023-07-28T03:18:07;14.95;;;9.52;;
74291;SDS011;62687;55.738;37.516;2023-07-28T03:20:51;14.77;;;10.00;;
74291;SDS011;62687;55.738;37.516;2023-07-28T03:23:35;13.80;;;8.77;;
74291;SDS011;62687;55.738;37.516;2023-07-28T03:26:19;15.68;;;8.98;;
74291;SDS011;62687;55.738;37.516;2023-07-28T03:29:03;15.23;;;9.27;;
74291;SDS011;62687;55.738;37.516;2023-07-28T03:31:47;13.48;;;9.88;;
74291;SDS011;62687;55.738;37.516;2023-07-28T03:34:31;15.32;;;9.43;;
74291;SDS011;62687;55.738;37.516;2023-07-28T03:37:15;14.63;;;8.75;;
74291;SDS011;62687;55.738;37.516;2023-07-28T03:39:59;15.23;;;8.95;;
74291;SDS011;62687;55.738;37.516;2023-07-28T03:42:43;19.05;;;8.80;;
74291;SDS011;62687;55.738;37.516;2023-07-28T03:45:27;12.68;;;8.50;;
74291;SDS011;62687;55.738;37.516;2023-07-28T03:48:11;15.60;;;9.02;;
74291;SDS011;62687;55.738;37.516;2023-07-28T03:50:55;15.55;;;8.98;;
74291;SDS011;62687;55.738;37.516;2023-07-28T03:53:34;10.98;;;8.68;;
74291;SDS011;62687;55.738;37.516;2023-07-28T03:56:19;15.80;;;9.68;;
74291;SDS011;62687;55.738;37.516;2023-07-28T03:59:03;16.00;;;10.05;;
74291;SDS011;62687;55.738;37.516;2023-07-28T04:01:47;17.38;;;9.73;;
74291;SDS011;62687;55.738;37.516;2023-07-28T04:04:31;17.35;;;10.10;;
74291;SDS011;62687;55.738;37.516;2023-07-28T04:07:15;16.27;;;9.98;;
74291;SDS011;62687;55.738;37.516;2023-07-28T04:09:59;14.20;;;8.60;;
74291;SDS011;62687;55.738;37.516;2023-07-28T04:12:43;18.17;;;9.35;;
74291;SDS011;62687;55.738;37.516;2023-07-28T04:15:27;15.90;;;9.73;;
74291;SDS011;62687;55.738;37.516;2023-07-28T04:18:11;14.23;;;9.73;;
74291;SDS011;62687;55.738;37.516;2023-07-28T04:20:55;16.85;;;10.77;;
74291;SDS011;62687;55.738;37.516;2023-07-28T04:23:39;21.30;;;11.93;;
74291;SDS011;62687;55.738;37.516;2023-07-28T04:26:24;19.40;;;11.18;;
74291;SDS011;62687;55.738;37.516;2023-07-28T04:29:09;20.38;;;11.13;;
74291;SDS011;62687;55.738;37.516;2023-07-28T04:31:52;19.92;;;11.98;;
74291;SDS011;62687;55.738;37.516;2023-07-28T04:34:37;22.40;;;13.02;;
74291;SDS011;62687;55.738;37.516;2023-07-28T04:37:20;21.17;;;10.93;;
74291;SDS011;62687;55.738;37.516;2023-07-28T04:40:05;23.98;;;12.63;;
74291;SDS011;62687;55.738;37.516;2023-07-28T04:42:49;20.27;;;12.38;;
74291;SDS011;62687;55.738;37.516;2023-07-28T04:45:36;18.95;;;11.52;;
74291;SDS011;62687;55.738;37.516;2023-07-28T04:48:21;21.38;;;12.15;;
74291;SDS011;62687;55.738;37.516;2023-07-28T04:51:05;18.80;;;12.32;;
74291;SDS011;62687;55.738;37.516;2023-07-28T04:53:49;23.95;;;13.27;;
74291;SDS011;62687;55.738;37.516;2023-07-28T04:56:33;17.88;;;11.65;;
74291;SDS011;62687;55.738;37.516;2023-07-28T04:59:17;21.73;;;11.40;;
74291;SDS011;62687;55.738;37.516;2023-07-28T05:02:01;17.98;;;12.70;;
74291;SDS011;62687;55.738;37.516;2023-07-28T05:04:45;21.88;;;11.77;;
74291;SDS011;62687;55.738;37.516;2023-07-28T05:07:29;17.38;;;10.95;;
74291;SDS011;62687;55.738;37.516;2023-07-28T05:10:13;19.88;;;11.93;;
74291;SDS011;62687;55.738;37.516;2023-07-28T05:12:57;21.13;;;12.38;;
74291;SDS011;62687;55.738;37.516;2023-07-28T05:15:41;18.80;;;11.45;;
74291;SDS011;62687;55.738;37.516;2023-07-28T05:18:26;22.60;;;11.80;;
74291;SDS011;62687;55.738;37.516;2023-07-28T05:21:10;17.45;;;11.93;;
74291;SDS011;62687;55.738;37.516;2023-07-28T05:23:54;19.83;;;12.45;;
74291;SDS011;62687;55.738;37.516;2023-07-28T05:26:38;27.10;;;12.63;;
74291;SDS011;62687;55.738;37.516;2023-07-28T05:29:21;20.40;;;12.73;;
74291;SDS011;62687;55.738;37.516;2023-07-28T05:32:06;24.55;;;12.02;;
74291;SDS011;62687;55.738;37.516;2023-07-28T05:34:50;18.10;;;11.02;;
74291;SDS011;62687;55.738;37.516;2023-07-28T05:37:34;19.55;;;12.32;;
74291;SDS011;62687;55.738;37.516;2023-07-28T05:40:18;19.48;;;13.07;;
74291;SDS011;62687;55.738;37.516;2023-07-28T05:43:02;16.30;;;11.85;;
74291;SDS011;62687;55.738;37.516;2023-07-28T05:45:46;20.27;;;11.50;;
74291;SDS011;62687;55.738;37.516;2023-07-28T05:48:30;17.85;;;10.98;;
74291;SDS011;62687;55.738;37.516;2023-07-28T05:51:14;16.92;;;10.88;;
74291;SDS011;62687;55.738;37.516;2023-07-28T05:53:58;18.85;;;11.50;;
74291;SDS011;62687;55.738;37.516;2023-07-28T05:56:42;17.55;;;11.77;;
74291;SDS011;62687;55.738;37.516;2023-07-28T05:59:26;17.52;;;11.43;;
74291;SDS011;62687;55.738;37.516;2023-07-28T06:02:10;15.95;;;10.63;;
74291;SDS011;62687;55.738;37.516;2023-07-28T06:04:54;16.45;;;10.40;;
74291;SDS011;62687;55.738;37.516;2023-07-28T06:07:38;16.40;;;10.75;;
74291;SDS011;62687;55.738;37.516;2023-07-28T06:10:22;16.20;;;10.38;;
74291;SDS011;62687;55.738;37.516;2023-07-28T06:13:06;16.45;;;10.82;;
74291;SDS011;62687;55.738;37.516;2023-07-28T06:15:52;19.42;;;10.52;;
74291;SDS011;62687;55.738;37.516;2023-07-28T06:18:36;21.35;;;10.50;;
74291;SDS011;62687;55.738;37.516;2023-07-28T06:21:20;17.75;;;9.57;;
74291;SDS011;62687;55.738;37.516;2023-07-28T06:24:04;13.93;;;9.05;;
74291;SDS011;62687;55.738;37.516;2023-07-28T06:26:49;11.98;;;8.10;;
74291;SDS011;62687;55.738;37.516;2023-07-28T06:29:34;16.60;;;9.10;;
74291;SDS011;62687;55.738;37.516;2023-07-28T06:32:18;14.75;;;7.47;;
74291;SDS011;62687;55.738;37.516;2023-07-28T06:35:04;15.30;;;6.97;;
74291;SDS011;62687;55.738;37.516;2023-07-28T06:37:49;15.27;;;7.45;;
74291;SDS011;62687;55.738;37.516;2023-07-28T06:40:33;10.27;;;6.10;;
74291;SDS011;62687;55.738;37.516;2023-07-28T06:43:17;11.45;;;5.75;;
74291;SDS011;62687;55.738;37.516;2023-07-28T06:46:03;11.90;;;6.63;;
74291;SDS011;62687;55.738;37.516;2023-07-28T06:48:47;12.45;;;5.47;;
74291;SDS011;62687;55.738;37.516;2023-07-28T06:51:30;13.18;;;6.60;;
74291;SDS011;62687;55.738;37.516;2023-07-28T06:54:14;13.98;;;7.13;;
74291;SDS011;62687;55.738;37.516;2023-07-28T06:56:58;13.73;;;7.40;;
74291;SDS011;62687;55.738;37.516;2023-07-28T06:59:42;12.45;;;6.50;;
74291;SDS011;62687;55.738;37.516;2023-07-28T07:02:27;12.60;;;6.78;;
74291;SDS011;62687;55.738;37.516;2023-07-28T07:05:10;9.55;;;5.90;;
74291;SDS011;62687;55.738;37.516;2023-07-28T07:10:39;10.55;;;5.72;;
74291;SDS011;62687;55.738;37.516;2023-07-28T07:13:23;15.27;;;6.90;;
74291;SDS011;62687;55.738;37.516;2023-07-28T07:16:17;13.43;;;6.18;;
74291;SDS011;62687;55.738;37.516;2023-07-28T07:19:00;15.73;;;7.10;;
74291;SDS011;62687;55.738;37.516;2023-07-28T07:21:45;15.25;;;7.25;;
74291;SDS011;62687;55.738;37.516;2023-07-28T07:24:28;12.93;;;7.68;;
74291;SDS011;62687;55.738;37.516;2023-07-28T07:27:12;20.50;;;8.80;;
74291;SDS011;62687;55.738;37.516;2023-07-28T07:29:56;17.38;;;7.75;;
74291;SDS011;62687;55.738;37.516;2023-07-28T07:32:40;18.83;;;8.68;;
74291;SDS011;62687;55.738;37.516;2023-07-28T07:35:24;15.52;;;8.40;;
74291;SDS011;62687;55.738;37.516;2023-07-28T07:38:08;16.70;;;7.97;;
74291;SDS011;62687;55.738;37.516;2023-07-28T07:40:52;14.55;;;7.25;;
74291;SDS011;62687;55.738;37.516;2023-07-28T07:43:36;15.57;;;7.60;;
74291;SDS011;62687;55.738;37.516;2023-07-28T07:46:20;13.75;;;6.82;;
74291;SDS011;62687;55.738;37.516;2023-07-28T07:49:04;14.45;;;6.63;;
74291;SDS011;62687;55.738;37.516;2023-07-28T07:51:49;10.93;;;6.65;;
74291;SDS011;62687;55.738;37.516;2023-07-28T07:54:33;11.52;;;6.38;;
74291;SDS011;62687;55.738;37.516;2023-07-28T07:57:17;13.18;;;6.43;;
74291;SDS011;62687;55.738;37.516;2023-07-28T08:00:01;13.50;;;6.60;;
74291;SDS011;62687;55.738;37.516;2023-07-28T08:02:45;18.17;;;7.32;;
74291;SDS011;62687;55.738;37.516;2023-07-28T08:08:14;17.35;;;6.07;;
74291;SDS011;62687;55.738;37.516;2023-07-28T08:11:01;10.88;;;5.78;;
74291;SDS011;62687;55.738;37.516;2023-07-28T08:13:46;11.15;;;5.10;;
74291;SDS011;62687;55.738;37.516;2023-07-28T08:16:32;8.07;;;4.82;;
74291;SDS011;62687;55.738;37.516;2023-07-28T08:19:16;8.40;;;4.45;;
74291;SDS011;62687;55.738;37.516;2023-07-28T08:22:01;9.27;;;4.57;;
74291;SDS011;62687;55.738;37.516;2023-07-28T08:24:47;7.63;;;3.90;;
74291;SDS011;62687;55.738;37.516;2023-07-28T08:27:31;9.32;;;4.10;;
74291;SDS011;62687;55.738;37.516;2023-07-28T08:30:15;11.73;;;4.57;;
74291;SDS011;62687;55.738;37.516;2023-07-28T08:32:59;9.23;;;4.60;;
74291;SDS011;62687;55.738;37.516;2023-07-28T08:35:44;7.13;;;4.60;;
74291;SDS011;62687;55.738;37.516;2023-07-28T08:38:27;8.35;;;4.57;;
74291;SDS011;62687;55.738;37.516;2023-07-28T08:41:14;24.58;;;6.28;;
74291;SDS011;62687;55.738;37.516;2023-07-28T08:43:58;12.63;;;4.85;;
74291;SDS011;62687;55.738;37.516;2023-07-28T08:46:42;8.88;;;5.20;;
74291;SDS011;62687;55.738;37.516;2023-07-28T08:49:26;9.02;;;4.57;;
74291;SDS011;62687;55.738;37.516;2023-07-28T08:52:10;9.75;;;4.55;;
74291;SDS011;62687;55.738;37.516;2023-07-28T08:54:54;7.70;;;4.57;;
74291;SDS011;62687;55.738;37.516;2023-07-28T08:57:38;8.38;;;4.97;;
74291;SDS011;62687;55.738;37.516;2023-07-28T09:00:22;7.95;;;4.82;;
74291;SDS011;62687;55.738;37.516;2023-07-28T09:03:08;6.25;;;4.50;;
74291;SDS011;62687;55.738;37.516;2023-07-28T09:08:30;8.52;;;5.22;;
74291;SDS011;62687;55.738;37.516;2023-07-28T09:11:14;8.50;;;5.00;;
74291;SDS011;62687;55.738;37.516;2023-07-28T09:14:00;8.75;;;5.05;;
74291;SDS011;62687;55.738;37.516;2023-07-28T09:16:44;8.07;;;5.10;;
74291;SDS011;62687;55.738;37.516;2023-07-28T09:19:28;8.20;;;4.95;;
74291;SDS011;62687;55.738;37.516;2023-07-28T09:22:12;9.00;;;5.68;;
74291;SDS011;62687;55.738;37.516;2023-07-28T09:24:57;7.43;;;5.45;;
74291;SDS011;62687;55.738;37.516;2023-07-28T09:27:45;9.80;;;5.63;;
74291;SDS011;62687;55.738;37.516;2023-07-28T09:30:45;7.72;;;5.03;;
74291;SDS011;62687;55.738;37.516;2023-07-28T09:33:30;8.48;;;5.70;;
74291;SDS011;62687;55.738;37.516;2023-07-28T09:36:15;7.40;;;5.38;;
74291;SDS011;62687;55.738;37.516;2023-07-28T09:39:06;8.30;;;5.93;;
74291;SDS011;62687;55.738;37.516;2023-07-28T09:41:53;8.85;;;5.88;;
74291;SDS011;62687;55.738;37.516;2023-07-28T09:44:41;8.88;;;5.78;;
74291;SDS011;62687;55.738;37.516;2023-07-28T09:47:24;9.75;;;5.88;;
74291;SDS011;62687;55.738;37.516;2023-07-28T09:50:10;10.77;;;6.75;;
74291;SDS011;62687;55.738;37.516;2023-07-28T09:52:54;12.82;;;6.53;;
74291;SDS011;62687;55.738;37.516;2023-07-28T09:55:40;9.40;;;6.32;;
74291;SDS011;62687;55.738;37.516;2023-07-28T09:58:26;12.80;;;7.40;;
74291;SDS011;62687;55.738;37.516;2023-07-28T10:01:11;11.25;;;7.40;;
74291;SDS011;62687;55.738;37.516;2023-07-28T10:03:55;8.68;;;6.60;;
74291;SDS011;62687;55.738;37.516;2023-07-28T10:06:39;14.00;;;7.20;;
74291;SDS011;62687;55.738;37.516;2023-07-28T10:09:26;10.50;;;7.10;;
74291;SDS011;62687;55.738;37.516;2023-07-28T10:12:18;11.00;;;6.68;;
74291;SDS011;62687;55.738;37.516;2023-07-28T10:15:03;10.65;;;7.20;;
74291;SDS011;62687;55.738;37.516;2023-07-28T10:17:49;9.77;;;7.45;;
74291;SDS011;62687;55.738;37.516;2023-07-28T10:23:21;11.43;;;6.82;;
74291;SDS011;62687;55.738;37.516;2023-07-28T10:26:06;12.57;;;7.60;;
74291;SDS011;62687;55.738;37.516;2023-07-28T10:28:50;9.75;;;6.70;;
74291;SDS011;62687;55.738;37.516;2023-07-28T10:31:35;8.98;;;6.47;;
74291;SDS011;62687;55.738;37.516;2023-07-28T10:34:20;9.80;;;7.07;;
74291;SDS011;62687;55.738;37.516;2023-07-28T10:37:05;12.60;;;8.18;;
74291;SDS011;62687;55.738;37.516;2023-07-28T10:45:39;13.27;;;7.68;;
74291;SDS011;62687;55.738;37.516;2023-07-28T10:48:23;14.65;;;8.43;;
74291;SDS011;62687;55.738;37.516;2023-07-28T10:51:06;16.13;;;9.80;;
74291;SDS011;62687;55.738;37.516;2023-07-28T10:53:51;12.73;;;8.25;;
74291;SDS011;62687;55.738;37.516;2023-07-28T10:56:36;18.80;;;11.02;;
74291;SDS011;62687;55.738;37.516;2023-07-28T10:59:19;18.55;;;11.63;;
74291;SDS011;62687;55.738;37.516;2023-07-28T11:02:05;6.13;;;3.50;;
74291;SDS011;62687;55.738;37.516;2023-07-28T11:04:48;7.63;;;4.38;;
74291;SDS011;62687;55.738;37.516;2023-07-28T11:07:32;9.25;;;5.70;;
74291;SDS011;62687;55.738;37.516;2023-07-28T11:10:16;7.93;;;5.13;;
74291;SDS011;62687;55.738;37.516;2023-07-28T11:13:01;13.93;;;6.20;;
74291;SDS011;62687;55.738;37.516;2023-07-28T11:15:46;13.23;;;6.70;;
74291;SDS011;62687;55.738;37.516;2023-07-28T11:18:30;10.38;;;6.95;;
74291;SDS011;62687;55.738;37.516;2023-07-28T11:21:16;10.05;;;7.03;;
74291;SDS011;62687;55.738;37.516;2023-07-28T11:24:00;11.57;;;7.15;;
74291;SDS011;62687;55.738;37.516;2023-07-28T11:26:44;9.68;;;6.60;;
74291;SDS011;62687;55.738;37.516;2023-07-28T11:29:32;12.13;;;7.20;;
74291;SDS011;62687;55.738;37.516;2023-07-28T11:32:16;16.10;;;8.15;;
74291;SDS011;62687;55.738;37.516;2023-07-28T11:35:04;12.05;;;7.55;;
74291;SDS011;62687;55.738;37.516;2023-07-28T11:37:49;11.20;;;8.05;;
74291;SDS011;62687;55.738;37.516;2023-07-28T11:40:37;17.98;;;9.27;;
74291;SDS011;62687;55.738;37.516;2023-07-28T11:43:22;19.70;;;8.80;;
74291;SDS011;62687;55.738;37.516;2023-07-28T11:46:31;11.23;;;7.05;;
74291;SDS011;62687;55.738;37.516;2023-07-28T11:49:14;10.57;;;7.13;;
74291;SDS011;62687;55.738;37.516;2023-07-28T11:52:07;12.30;;;8.02;;
74291;SDS011;62687;55.738;37.516;2023-07-28T11:54:51;15.50;;;8.68;;
74291;SDS011;62687;55.738;37.516;2023-07-28T11:57:36;18.55;;;8.32;;
74291;SDS011;62687;55.738;37.516;2023-07-28T12:00:33;21.52;;;8.80;;
74291;SDS011;62687;55.738;37.516;2023-07-28T12:03:18;14.52;;;8.60;;
74291;SDS011;62687;55.738;37.516;2023-07-28T12:06:03;14.38;;;8.52;;
74291;SDS011;62687;55.738;37.516;2023-07-28T12:08:49;15.07;;;8.90;;
74291;SDS011;62687;55.738;37.516;2023-07-28T12:11:33;15.32;;;9.48;;
74291;SDS011;62687;55.738;37.516;2023-07-28T12:14:29;16.73;;;8.65;;
74291;SDS011;62687;55.738;37.516;2023-07-28T12:17:14;12.52;;;7.70;;
74291;SDS011;62687;55.738;37.516;2023-07-28T12:22:44;7.18;;;4.53;;
74291;SDS011;62687;55.738;37.516;2023-07-28T12:25:29;4.68;;;2.65;;
74291;SDS011;62687;55.738;37.516;2023-07-28T12:28:13;6.40;;;3.45;;
74291;SDS011;62687;55.738;37.516;2023-07-28T12:30:58;7.88;;;2.83;;
74291;SDS011;62687;55.738;37.516;2023-07-28T12:33:43;4.18;;;2.35;;
74291;SDS011;62687;55.738;37.516;2023-07-28T12:36:28;5.55;;;2.53;;
74291;SDS011;62687;55.738;37.516;2023-07-28T12:39:12;6.25;;;2.58;;
74291;SDS011;62687;55.738;37.516;2023-07-28T12:41:57;4.80;;;2.42;;
74291;SDS011;62687;55.738;37.516;2023-07-28T12:44:43;3.85;;;2.20;;
74291;SDS011;62687;55.738;37.516;2023-07-28T12:47:27;4.03;;;2.10;;
74291;SDS011;62687;55.738;37.516;2023-07-28T12:50:13;4.28;;;2.45;;
74291;SDS011;62687;55.738;37.516;2023-07-28T12:52:58;5.22;;;2.55;;
74291;SDS011;62687;55.738;37.516;2023-07-28T12:55:43;5.40;;;2.35;;
74291;SDS011;62687;55.738;37.516;2023-07-28T13:01:12;4.45;;;2.22;;
74291;SDS011;62687;55.738;37.516;2023-07-28T13:03:56;4.55;;;2.50;;
74291;SDS011;62687;55.738;37.516;2023-07-28T13:06:41;3.83;;;2.25;;
74291;SDS011;62687;55.738;37.516;2023-07-28T13:09:26;4.40;;;2.25;;
74291;SDS011;62687;55.738;37.516;2023-07-28T13:12:10;5.72;;;3.08;;
74291;SDS011;62687;55.738;37.516;2023-07-28T13:14:55;7.22;;;2.30;;
74291;SDS011;62687;55.738;37.516;2023-07-28T13:17:41;5.10;;;2.45;;
74291;SDS011;62687;55.738;37.516;2023-07-28T13:20:25;5.07;;;2.65;;
74291;SDS011;62687;55.738;37.516;2023-07-28T13:23:09;8.60;;;2.85;;
74291;SDS011;62687;55.738;37.516;2023-07-28T13:25:53;6.38;;;2.55;;
74291;SDS011;62687;55.738;37.516;2023-07-28T13:28:37;8.90;;;3.40;;
74291;SDS011;62687;55.738;37.516;2023-07-28T13:31:23;5.80;;;2.63;;
74291;SDS011;62687;55.738;37.516;2023-07-28T13:34:07;6.72;;;2.33;;
74291;SDS011;62687;55.738;37.516;2023-07-28T13:36:51;4.13;;;2.25;;
74291;SDS011;62687;55.738;37.516;2023-07-28T13:39:35;6.30;;;2.60;;
74291;SDS011;62687;55.738;37.516;2023-07-28T13:42:19;5.90;;;1.83;;
74291;SDS011;62687;55.738;37.516;2023-07-28T13:45:03;3.13;;;1.20;;
74291;SDS011;62687;55.738;37.516;2023-07-28T13:47:47;2.60;;;1.45;;
74291;SDS011;62687;55.738;37.516;2023-07-28T13:50:31;3.47;;;1.50;;
74291;SDS011;62687;55.738;37.516;2023-07-28T13:53:15;4.97;;;2.00;;
74291;SDS011;62687;55.738;37.516;2023-07-28T13:55:59;7.15;;;2.22;;
74291;SDS011;62687;55.738;37.516;2023-07-28T13:58:43;4.93;;;1.80;;
74291;SDS011;62687;55.738;37.516;2023-07-28T14:01:27;11.48;;;2.22;;
74291;SDS011;62687;55.738;37.516;2023-07-28T14:04:11;5.20;;;2.35;;
74291;SDS011;62687;55.738;37.516;2023-07-28T14:06:54;4.32;;;2.30;;
74291;SDS011;62687;55.738;37.516;2023-07-28T14:09:39;4.70;;;2.13;;
74291;SDS011;62687;55.738;37.516;2023-07-28T14:12:22;4.88;;;2.22;;
74291;SDS011;62687;55.738;37.516;2023-07-28T14:15:07;5.13;;;2.03;;
74291;SDS011;62687;55.738;37.516;2023-07-28T14:17:51;5.30;;;2.20;;
74291;SDS011;62687;55.738;37.516;2023-07-28T14:20:35;2.75;;;1.60;;
74291;SDS011;62687;55.738;37.516;2023-07-28T14:23:23;7.32;;;1.90;;
74291;SDS011;62687;55.738;37.516;2023-07-28T14:26:07;3.58;;;1.92;;
74291;SDS011;62687;55.738;37.516;2023-07-28T14:28:51;3.40;;;1.45;;
74291;SDS011;62687;55.738;37.516;2023-07-28T14:31:35;5.95;;;2.15;;
74291;SDS011;62687;55.738;37.516;2023-07-28T14:34:19;3.40;;;1.35;;
74291;SDS011;62687;55.738;37.516;2023-07-28T14:37:03;7.10;;;2.05;;
74291;SDS011;62687;55.738;37.516;2023-07-28T14:39:49;4.05;;;1.88;;
74291;SDS011;62687;55.738;37.516;2023-07-28T14:42:32;2.40;;;1.65;;
74291;SDS011;62687;55.738;37.516;2023-07-28T14:45:16;4.65;;;2.00;;
74291;SDS011;62687;55.738;37.516;2023-07-28T14:48:01;3.53;;;1.83;;
74291;SDS011;62687;55.738;37.516;2023-07-28T14:50:46;4.30;;;1.95;;
74291;SDS011;62687;55.738;37.516;2023-07-28T14:53:30;2.70;;;1.67;;
74291;SDS011;62687;55.738;37.516;2023-07-28T14:58:58;7.72;;;2.20;;
74291;SDS011;62687;55.738;37.516;2023-07-28T15:01:44;4.03;;;2.10;;
74291;SDS011;62687;55.738;37.516;2023-07-28T15:04:30;3.00;;;2.08;;
74291;SDS011;62687;55.738;37.516;2023-07-28T15:07:14;7.85;;;2.63;;
74291;SDS011;62687;55.738;37.516;2023-07-28T15:09:58;7.03;;;2.63;;
74291;SDS011;62687;55.738;37.516;2023-07-28T15:12:42;7.45;;;2.85;;
74291;SDS011;62687;55.738;37.516;2023-07-28T15:15:28;7.65;;;3.00;;
74291;SDS011;62687;55.738;37.516;2023-07-28T15:20:56;9.20;;;2.95;;
74291;SDS011;62687;55.738;37.516;2023-07-28T15:23:45;4.10;;;2.22;;
74291;SDS011;62687;55.738;37.516;2023-07-28T15:26:29;3.70;;;1.70;;
74291;SDS011;62687;55.738;37.516;2023-07-28T15:29:14;6.85;;;2.50;;
74291;SDS011;62687;55.738;37.516;2023-07-28T15:31:58;9.02;;;2.95;;
74291;SDS011;62687;55.738;37.516;2023-07-28T15:34:42;12.13;;;3.25;;
74291;SDS011;62687;55.738;37.516;2023-07-28T15:37:26;8.13;;;3.03;;
74291;SDS011;62687;55.738;37.516;2023-07-28T15:40:10;4.88;;;2.40;;
74291;SDS011;62687;55.738;37.516;2023-07-28T15:42:54;5.05;;;2.60;;
74291;SDS011;62687;55.738;37.516;2023-07-28T15:45:38;8.63;;;3.20;;
74291;SDS011;62687;55.738;37.516;2023-07-28T15:48:22;8.60;;;3.10;;
74291;SDS011;62687;55.738;37.516;2023-07-28T15:51:06;5.15;;;2.20;;
74291;SDS011;62687;55.738;37.516;2023-07-28T15:53:49;7.70;;;2.45;;
74291;SDS011;62687;55.738;37.516;2023-07-28T15:56:33;10.95;;;6.43;;
74291;SDS011;62687;55.738;37.516;2023-07-28T15:59:17;6.85;;;3.25;;
74291;SDS011;62687;55.738;37.516;2023-07-28T16:02:01;12.20;;;3.10;;
74291;SDS011;62687;55.738;37.516;2023-07-28T16:04:45;7.80;;;2.70;;
74291;SDS011;62687;55.738;37.516;2023-07-28T16:07:29;7.03;;;1.88;;
74291;SDS011;62687;55.738;37.516;2023-07-28T16:10:14;4.05;;;1.75;;
74291;SDS011;62687;55.738;37.516;2023-07-28T16:12:58;8.55;;;1.63;;
74291;SDS011;62687;55.738;37.516;2023-07-28T16:15:42;4.22;;;1.33;;
74291;SDS011;62687;55.738;37.516;2023-07-28T16:18:26;5.80;;;1.25;;
74291;SDS011;62687;55.738;37.516;2023-07-28T16:21:11;2.33;;;1.20;;
74291;SDS011;62687;55.738;37.516;2023-07-28T16:23:55;4.70;;;1.30;;
74291;SDS011;62687;55.738;37.516;2023-07-28T16:26:39;3.40;;;1.40;;
74291;SDS011;62687;55.738;37.516;2023-07-28T16:32:07;4.00;;;1.38;;
74291;SDS011;62687;55.738;37.516;2023-07-28T16:34:52;3.30;;;1.20;;
74291;SDS011;62687;55.738;37.516;2023-07-28T16:37:36;5.82;;;1.50;;
74291;SDS011;62687;55.738;37.516;2023-07-28T16:40:20;4.50;;;1.35;;